Time;durP1;ratioP1;P1;durP2;ratioP2;P2;SDS_P1;SDS_P2;PMS_P1;PMS_P2;Temp;Humidity;BMP_temperature;BMP_pressure;BME280_temperature;BME280_humidity;BME280_pressure;Samples;Min_cycle;Max_cycle;Signal;HPM_P1;HPM_P2
2023/04/23 00:02:57;;;;;;;8.00;4.57;;;13.40;97.20;;;;;;10421187;28;20009;-89
2023/04/23 00:08:00;;;;;;;7.93;4.63;;;13.30;97.20;;;;;;10422182;28;20105;-89
2023/04/23 00:13:01;;;;;;;8.75;4.53;;;13.30;97.10;;;;;;10414621;28;20022;-88
2023/04/23 00:18:01;;;;;;;7.57;4.68;;;13.30;97.10;;;;;;10418682;28;20031;-89
2023/04/23 00:23:03;;;;;;;7.65;4.60;;;13.30;97.10;;;;;;10426745;28;20036;-89
2023/04/23 00:28:04;;;;;;;8.23;4.80;;;14.20;97.30;;;;;;10419211;28;20175;-89
2023/04/23 00:33:04;;;;;;;9.77;5.00;;;13.20;97.10;;;;;;10407762;28;20083;-89
2023/04/23 00:38:05;;;;;;;8.57;5.18;;;13.20;97.10;;;;;;10413580;28;20638;-89
2023/04/23 00:43:07;;;;;;;9.73;4.82;;;13.20;97.10;;;;;;10406001;28;20033;-90
2023/04/23 00:48:08;;;;;;;9.88;5.60;;;13.20;97.00;;;;;;10421906;28;20071;-89
2023/04/23 00:53:08;;;;;;;10.05;5.57;;;13.10;97.00;;;;;;10422448;28;20053;-89
2023/04/23 00:58:10;;;;;;;11.43;6.45;;;13.10;97.00;;;;;;10422728;28;20081;-90
2023/04/23 01:03:12;;;;;;;12.88;6.60;;;13.80;97.20;;;;;;10422089;28;20025;-89
2023/04/23 01:08:15;;;;;;;12.90;6.88;;;13.80;97.20;;;;;;10423042;28;20124;-89
2023/04/23 01:13:15;;;;;;;13.30;7.25;;;13.40;97.10;;;;;;10424132;28;20033;-89
2023/04/23 01:18:18;;;;;;;15.00;7.72;;;13.10;97.00;;;;;;10412602;28;20377;-89
2023/04/23 01:23:19;;;;;;;15.50;7.78;;;13.80;97.20;;;;;;10422266;28;20144;-89
2023/04/23 01:28:20;;;;;;;18.08;8.90;;;13.60;97.10;;;;;;10423842;28;20374;-89
2023/04/23 01:33:21;;;;;;;16.55;8.77;;;13.20;97.00;;;;;;10428247;28;20109;-89
2023/04/23 01:38:24;;;;;;;20.40;9.88;;;13.00;97.10;;;;;;10418834;28;20021;-89
2023/04/23 01:43:24;;;;;;;18.63;10.02;;;14.10;97.30;;;;;;10416690;28;20124;-89
2023/04/23 01:48:25;;;;;;;21.50;10.63;;;13.60;97.10;;;;;;10424352;28;20029;-89
2023/04/23 01:53:26;;;;;;;20.38;10.48;;;13.90;97.20;;;;;;10403362;28;20675;-90
2023/04/23 01:58:26;;;;;;;22.10;10.50;;;12.80;96.90;;;;;;10411732;28;20021;-89
2023/04/23 02:03:32;;;;;;;21.75;11.25;;;12.90;97.00;;;;;;10419321;28;20068;-89
2023/04/23 02:08:33;;;;;;;20.60;10.77;;;14.00;97.20;;;;;;10422018;28;20479;-89
2023/04/23 02:13:33;;;;;;;22.73;11.00;;;12.90;97.00;;;;;;10416859;28;20125;-89
2023/04/23 02:18:34;;;;;;;23.08;11.23;;;13.60;97.10;;;;;;10422741;28;20021;-89
2023/04/23 02:23:34;;;;;;;21.90;10.73;;;13.30;97.20;;;;;;10391731;28;20037;-88
2023/04/23 02:28:35;;;;;;;24.50;11.77;;;12.80;97.00;;;;;;10411100;28;20488;-89
2023/04/23 02:33:37;;;;;;;25.65;12.70;;;12.80;97.00;;;;;;10420775;28;20041;-90
2023/04/23 02:38:41;;;;;;;23.98;11.95;;;12.80;96.90;;;;;;10394063;28;20582;-89
2023/04/23 02:43:41;;;;;;;24.92;12.32;;;13.70;97.20;;;;;;10408068;28;20516;-89
2023/04/23 02:48:42;;;;;;;25.58;12.63;;;13.60;97.20;;;;;;10413173;28;20115;-90
2023/04/23 02:53:42;;;;;;;27.15;12.88;;;12.70;96.90;;;;;;10408467;28;20026;-89
2023/04/23 02:58:44;;;;;;;26.50;11.80;;;13.20;97.10;;;;;;10420105;28;20013;-90
2023/04/23 03:03:44;;;;;;;25.52;12.68;;;13.70;97.20;;;;;;10425558;28;20028;-90
2023/04/23 03:08:45;;;;;;;28.30;13.40;;;12.90;97.00;;;;;;10418467;28;20036;-89
2023/04/23 03:13:45;;;;;;;27.08;12.35;;;13.10;97.00;;;;;;10409204;28;20042;-89
2023/04/23 03:18:46;;;;;;;26.15;13.07;;;12.60;96.90;;;;;;10413782;28;20057;-89
2023/04/23 03:23:47;;;;;;;25.58;12.68;;;12.60;96.90;;;;;;10415257;28;20040;-89
2023/04/23 03:28:47;;;;;;;27.55;13.02;;;13.50;97.10;;;;;;10409309;28;20017;-88
2023/04/23 03:33:48;;;;;;;27.13;12.90;;;13.30;97.00;;;;;;10422241;28;20017;-87
2023/04/23 03:38:48;;;;;;;29.58;14.00;;;12.80;96.90;;;;;;10406299;28;20094;-87
2023/04/23 03:43:49;;;;;;;28.67;13.75;;;13.10;97.00;;;;;;10393902;28;20026;-87
2023/04/23 03:48:49;;;;;;;28.13;13.82;;;13.20;97.00;;;;;;10403768;28;20056;-87
2023/04/23 03:53:50;;;;;;;29.17;14.50;;;13.10;97.00;;;;;;10402327;28;20029;-88
2023/04/23 03:58:51;;;;;;;30.33;14.27;;;13.50;97.10;;;;;;10401735;28;20108;-87
2023/04/23 04:03:52;;;;;;;27.27;14.32;;;13.30;97.00;;;;;;10397439;28;20036;-88
2023/04/23 04:08:52;;;;;;;29.80;14.52;;;12.90;96.90;;;;;;10405143;28;20842;-87
2023/04/23 04:13:53;;;;;;;29.58;14.38;;;13.10;97.00;;;;;;10405711;28;20090;-88
2023/04/23 04:18:54;;;;;;;31.92;15.57;;;12.50;96.80;;;;;;10408599;28;20032;-86
2023/04/23 04:23:55;;;;;;;33.38;15.80;;;12.50;96.80;;;;;;10409373;28;20059;-88
2023/04/23 04:28:57;;;;;;;33.17;15.95;;;12.40;96.80;;;;;;10399486;28;20132;-87
2023/04/23 04:33:57;;;;;;;33.20;15.73;;;13.30;97.00;;;;;;10407772;28;20160;-87
2023/04/23 04:38:58;;;;;;;32.10;15.57;;;12.40;96.80;;;;;;10405098;28;20078;-87
2023/04/23 04:43:58;;;;;;;30.73;15.35;;;13.40;97.10;;;;;;10409010;28;20404;-87
2023/04/23 04:48:59;;;;;;;32.35;15.95;;;12.80;96.90;;;;;;10411846;28;20018;-87
2023/04/23 04:54:00;;;;;;;34.08;15.95;;;12.40;96.80;;;;;;10420520;28;20029;-87
2023/04/23 04:59:01;;;;;;;36.97;16.88;;;13.20;97.00;;;;;;10418211;28;20025;-86
2023/04/23 05:04:02;;;;;;;33.85;16.63;;;12.80;96.90;;;;;;10415622;28;20022;-87
2023/04/23 05:09:03;;;;;;;30.15;15.40;;;13.20;97.10;;;;;;10418110;28;20045;-87
2023/04/23 05:14:03;;;;;;;38.72;17.83;;;12.80;96.90;;;;;;10418401;28;20424;-87
2023/04/23 05:19:05;;;;;;;33.40;16.65;;;12.40;96.90;;;;;;10414048;28;20059;-87
2023/04/23 05:24:07;;;;;;;34.78;17.25;;;13.20;97.10;;;;;;10398588;28;20532;-87
2023/04/23 05:29:08;;;;;;;34.20;16.75;;;12.90;97.00;;;;;;10413700;28;20049;-87
2023/04/23 05:34:09;;;;;;;34.72;16.38;;;13.00;97.00;;;;;;10416383;28;20030;-87
2023/04/23 05:39:10;;;;;;;35.08;16.77;;;12.30;96.80;;;;;;10411573;28;20092;-86
2023/04/23 05:44:10;;;;;;;36.35;17.33;;;12.30;96.80;;;;;;10416654;28;20033;-86
2023/04/23 05:49:12;;;;;;;35.65;17.48;;;12.90;96.90;;;;;;10421451;28;20526;-86
2023/04/23 05:54:13;;;;;;;35.50;17.02;;;12.40;96.80;;;;;;10410990;28;20099;-86
2023/04/23 05:59:13;;;;;;;36.42;17.33;;;12.50;96.80;;;;;;10416939;28;20021;-87
2023/04/23 06:04:15;;;;;;;34.65;16.63;;;12.30;96.80;;;;;;10410866;28;20030;-87
2023/04/23 06:09:17;;;;;;;34.10;15.90;;;12.40;96.80;;;;;;10431085;28;20033;-87
2023/04/23 06:14:17;;;;;;;33.50;15.65;;;13.40;97.10;;;;;;10395818;28;20017;-87
2023/04/23 06:19:18;;;;;;;34.72;16.50;;;12.40;96.80;;;;;;10398040;28;20675;-87
2023/04/23 06:24:19;;;;;;;31.55;15.07;;;12.40;96.80;;;;;;10400445;28;20072;-87
2023/04/23 06:29:19;;;;;;;34.40;16.55;;;12.40;96.80;;;;;;10405882;28;20089;-85
2023/04/23 06:34:20;;;;;;;33.45;16.25;;;12.40;96.80;;;;;;10407599;28;20028;-85
2023/04/23 06:39:21;;;;;;;36.40;16.23;;;12.50;96.80;;;;;;10412605;28;20029;-85
2023/04/23 06:44:23;;;;;;;32.78;14.88;;;12.80;96.90;;;;;;10416041;28;20021;-86
2023/04/23 06:49:23;;;;;;;30.65;15.68;;;12.50;96.90;;;;;;10413828;28;20424;-87
2023/04/23 06:54:24;;;;;;;33.65;15.82;;;12.40;96.90;;;;;;10412466;28;20067;-86
2023/04/23 06:59:25;;;;;;;31.70;15.32;;;13.20;97.10;;;;;;10415686;28;20415;-86
2023/04/23 07:04:25;;;;;;;30.33;14.90;;;13.60;97.30;;;;;;10417272;28;20026;-87
2023/04/23 07:09:27;;;;;;;34.00;16.63;;;13.00;97.10;;;;;;10439184;28;20135;-88
2023/04/23 07:14:28;;;;;;;31.77;15.20;;;13.50;97.20;;;;;;10403741;28;20120;-86
2023/04/23 07:19:28;;;;;;;37.45;16.00;;;12.60;97.00;;;;;;10412319;28;20203;-88
2023/04/23 07:24:29;;;;;;;28.27;14.57;;;13.10;97.10;;;;;;10413819;28;20031;-86
2023/04/23 07:29:30;;;;;;;29.05;14.32;;;13.40;97.20;;;;;;10411816;28;20112;-87
2023/04/23 07:34:30;;;;;;;29.55;15.02;;;13.40;97.20;;;;;;10414061;28;20032;-87
2023/04/23 07:39:32;;;;;;;27.40;13.40;;;12.60;97.00;;;;;;10416211;28;20029;-88
2023/04/23 07:44:32;;;;;;;31.83;15.32;;;13.90;97.40;;;;;;10419929;28;20277;-88
2023/04/23 07:49:33;;;;;;;29.65;14.40;;;12.70;97.10;;;;;;10417672;28;20641;-88
2023/04/23 07:54:33;;;;;;;28.65;14.57;;;13.70;97.30;;;;;;10422196;28;20034;-88
2023/04/23 07:59:34;;;;;;;26.15;12.50;;;13.40;97.30;;;;;;10412581;28;20029;-88
2023/04/23 08:04:34;;;;;;;25.95;13.45;;;13.50;97.30;;;;;;10415353;28;20045;-91
2023/04/23 08:09:35;;;;;;;26.77;13.60;;;13.80;97.40;;;;;;10414922;28;20076;-91
2023/04/23 08:14:36;;;;;;;24.48;13.15;;;13.80;97.40;;;;;;10413944;28;20037;-90
2023/04/23 08:19:36;;;;;;;27.92;12.73;;;12.80;97.20;;;;;;10418904;28;20029;-90
2023/04/23 08:24:37;;;;;;;22.55;12.57;;;13.70;97.40;;;;;;10415927;28;20083;-90
2023/04/23 08:29:37;;;;;;;25.80;12.90;;;13.00;97.20;;;;;;10418967;28;20025;-90
2023/04/23 08:34:38;;;;;;;23.35;11.95;;;13.00;97.20;;;;;;10420535;28;20021;-89
2023/04/23 08:39:42;;;;;;;24.10;12.18;;;13.70;97.40;;;;;;10417226;28;20095;-87
2023/04/23 08:44:45;;;;;;;18.88;10.27;;;14.00;97.40;;;;;;10424142;28;20040;-88
2023/04/23 08:49:49;;;;;;;19.40;10.63;;;13.90;97.50;;;;;;10427705;28;20028;-87
2023/04/23 08:54:52;;;;;;;20.05;9.93;;;13.10;97.20;;;;;;10422298;28;20144;-86
2023/04/23 08:59:54;;;;;;;20.55;9.35;;;13.50;97.40;;;;;;10419143;28;20009;-85
2023/04/23 09:04:54;;;;;;;18.45;10.05;;;13.20;97.30;;;;;;10421319;28;20041;-87
2023/04/23 09:09:55;;;;;;;21.75;10.20;;;14.20;97.50;;;;;;10428094;28;20042;-91
2023/04/23 09:14:56;;;;;;;17.33;9.05;;;13.60;97.30;;;;;;10422972;28;20026;-90
2023/04/23 09:19:57;;;;;;;18.98;9.85;;;13.60;97.20;;;;;;10421908;28;20040;-91
2023/04/23 09:25:00;;;;;;;21.02;9.65;;;13.60;97.20;;;;;;10422481;28;20033;-89
2023/04/23 09:30:06;;;;;;;18.38;9.40;;;13.70;97.50;;;;;;10415882;28;20065;-89
2023/04/23 09:35:14;;;;;;;17.52;9.23;;;13.70;97.20;;;;;;10422837;28;20780;-90
2023/04/23 09:40:17;;;;;;;24.88;10.38;;;14.00;97.60;;;;;;10431075;28;20021;-89
2023/04/23 09:45:18;;;;;;;33.20;9.77;;;14.90;98.20;;;;;;10420571;28;20550;-89
2023/04/23 09:50:21;;;;;;;19.48;9.57;;;14.20;98.00;;;;;;10424712;28;20107;-89
2023/04/23 09:55:40;;;;;;;19.35;8.95;;;14.30;98.20;;;;;;10424686;28;20394;-87
2023/04/23 10:00:41;;;;;;;14.43;7.93;;;14.50;98.40;;;;;;10422823;28;20017;-89
2023/04/23 10:05:42;;;;;;;13.48;6.95;;;15.60;98.30;;;;;;10417983;28;20388;-86
2023/04/23 10:10:45;;;;;;;13.77;6.50;;;14.70;98.10;;;;;;10414411;28;20026;-86
2023/04/23 10:15:46;;;;;;;12.35;5.97;;;15.20;98.30;;;;;;10393924;28;20146;-88
2023/04/23 10:20:49;;;;;;;10.75;5.60;;;15.20;97.80;;;;;;10423711;28;20037;-88
2023/04/23 10:25:54;;;;;;;9.63;5.10;;;15.40;97.60;;;;;;10420627;28;20032;-89
2023/04/23 10:30:56;;;;;;;10.38;4.30;;;15.60;97.40;;;;;;10397940;28;20618;-85
2023/04/23 10:35:57;;;;;;;6.35;4.13;;;15.70;97.20;;;;;;10424228;28;20366;-86
2023/04/23 10:41:01;;;;;;;7.35;4.70;;;15.80;97.00;;;;;;10421221;28;20025;-85
2023/04/23 10:46:02;;;;;;;6.68;3.78;;;15.90;97.00;;;;;;10402531;28;20116;-86
2023/04/23 10:51:03;;;;;;;12.05;4.03;;;15.90;96.70;;;;;;10427182;28;20021;-86
2023/04/23 10:56:06;;;;;;;7.18;4.28;;;16.70;96.70;;;;;;10411912;28;20052;-86
2023/04/23 11:01:06;;;;;;;8.00;4.00;;;15.90;96.70;;;;;;10417535;28;20029;-87
2023/04/23 11:06:11;;;;;;;8.02;3.97;;;16.10;96.90;;;;;;10418485;28;20524;-86
2023/04/23 11:11:11;;;;;;;7.13;3.80;;;16.30;96.70;;;;;;10418965;28;20048;-86
2023/04/23 11:16:22;;;;;;;6.70;3.08;;;16.10;96.50;;;;;;10416023;28;20040;-85
2023/04/23 11:21:56;;;;;;;6.70;2.30;;;16.20;96.10;;;;;;10424047;28;20646;-86
2023/04/23 11:26:57;;;;;;;6.72;2.47;;;16.30;95.40;;;;;;10421430;28;20022;-87
2023/04/23 11:31:58;;;;;;;6.72;2.35;;;16.40;95.70;;;;;;10414485;28;20098;-89
2023/04/23 11:37:01;;;;;;;5.28;1.90;;;16.60;95.50;;;;;;10407331;28;20103;-89
2023/04/23 11:42:02;;;;;;;4.90;1.70;;;17.10;94.90;;;;;;10402051;28;20128;-88
2023/04/23 11:47:02;;;;;;;4.70;1.42;;;17.10;94.50;;;;;;10405383;28;20049;-89
2023/04/23 11:52:04;;;;;;;5.28;1.63;;;17.10;94.40;;;;;;10428495;28;20021;-88
2023/04/23 11:57:05;;;;;;;7.43;1.88;;;16.80;94.10;;;;;;10422650;28;20025;-89
2023/04/23 12:02:06;;;;;;;4.30;1.23;;;17.30;94.10;;;;;;10420535;28;20042;-88
2023/04/23 12:07:07;;;;;;;1.60;0.88;;;16.60;94.00;;;;;;10417815;28;20067;-89
2023/04/23 12:12:08;;;;;;;6.07;1.20;;;16.60;93.60;;;;;;10406981;28;20630;-89
2023/04/23 12:17:10;;;;;;;14.75;1.80;;;16.80;93.50;;;;;;10424740;28;20051;-90
2023/04/23 12:22:10;;;;;;;4.28;1.20;;;17.70;93.50;;;;;;10410776;28;20024;-89
2023/04/23 12:27:14;;;;;;;1.75;0.82;;;17.20;93.20;;;;;;10419414;28;20396;-88
2023/04/23 12:32:15;;;;;;;7.78;2.30;;;17.00;92.70;;;;;;10405728;28;20075;-89
2023/04/23 12:37:16;;;;;;;4.78;1.00;;;18.10;92.80;;;;;;10401152;28;20032;-89
2023/04/23 12:42:17;;;;;;;2.10;1.00;;;17.40;92.40;;;;;;10405400;28;20089;-87
2023/04/23 12:47:20;;;;;;;3.63;1.30;;;17.20;92.30;;;;;;10409566;28;20067;-88
2023/04/23 12:52:21;;;;;;;2.90;1.20;;;17.30;92.10;;;;;;10405837;28;20025;-87
2023/04/23 12:57:23;;;;;;;5.60;1.40;;;17.50;91.80;;;;;;10392306;28;20333;-88
2023/04/23 13:02:24;;;;;;;6.32;1.15;;;17.60;91.70;;;;;;10405355;28;20053;-87
2023/04/23 13:07:25;;;;;;;2.63;0.90;;;17.70;91.20;;;;;;10411154;28;20413;-86
2023/04/23 13:12:26;;;;;;;4.90;1.10;;;17.70;90.80;;;;;;10414035;28;20026;-86
2023/04/23 13:17:26;;;;;;;6.03;1.58;;;17.60;90.70;;;;;;10393725;28;20022;-89
2023/04/23 13:22:28;;;;;;;3.33;0.80;;;17.50;90.50;;;;;;10415219;28;20643;-87
2023/04/23 13:27:29;;;;;;;4.93;0.85;;;17.40;90.60;;;;;;10408527;28;20087;-88
2023/04/23 13:32:31;;;;;;;1.85;0.80;;;17.50;90.60;;;;;;10399525;28;20041;-87
2023/04/23 13:37:32;;;;;;;5.00;0.93;;;17.50;90.60;;;;;;10394754;28;20034;-89
2023/04/23 13:42:33;;;;;;;3.30;0.90;;;18.40;91.00;;;;;;10410098;28;20136;-87
2023/04/23 13:47:34;;;;;;;3.50;1.00;;;18.20;90.70;;;;;;10414532;28;20030;-87
2023/04/23 13:52:36;;;;;;;5.32;1.20;;;17.80;90.40;;;;;;10411133;28;20028;-86
2023/04/23 13:57:37;;;;;;;6.82;1.33;;;18.00;90.40;;;;;;10408968;28;20013;-87
2023/04/23 14:02:38;;;;;;;6.30;1.30;;;18.20;90.40;;;;;;10411432;28;20040;-87
2023/04/23 14:07:39;;;;;;;5.72;1.27;;;18.50;90.10;;;;;;10415137;28;20036;-87
2023/04/23 14:12:40;;;;;;;3.05;1.20;;;18.50;90.00;;;;;;10411994;28;20024;-87
2023/04/23 14:17:42;;;;;;;4.78;1.70;;;18.30;89.90;;;;;;10410521;28;20052;-86
2023/04/23 14:22:47;;;;;;;4.22;1.10;;;18.10;90.20;;;;;;10416550;28;20029;-87
2023/04/23 14:27:50;;;;;;;3.95;1.48;;;17.90;90.30;;;;;;10426106;28;20040;-87
2023/04/23 14:32:52;;;;;;;6.18;1.25;;;17.90;90.50;;;;;;10402174;28;20031;-86
2023/04/23 14:37:52;;;;;;;4.38;1.25;;;17.80;90.70;;;;;;10406945;28;20021;-84
2023/04/23 14:42:53;;;;;;;6.43;1.30;;;17.80;91.00;;;;;;10406250;28;20047;-85
2023/04/23 14:47:56;;;;;;;3.08;1.15;;;17.60;90.90;;;;;;10409079;28;20054;-86
2023/04/23 14:52:57;;;;;;;5.10;1.20;;;17.50;90.90;;;;;;10404097;28;20047;-85
2023/04/23 14:57:58;;;;;;;4.80;1.25;;;17.50;91.00;;;;;;10410554;28;20025;-86
2023/04/23 15:03:00;;;;;;;3.00;1.10;;;17.50;90.90;;;;;;10405108;28;20033;-86
2023/04/23 15:08:00;;;;;;;4.35;1.40;;;17.60;90.80;;;;;;10409800;28;20554;-86
2023/04/23 15:13:06;;;;;;;3.65;1.10;;;17.70;90.80;;;;;;10403748;28;20059;-87
2023/04/23 15:18:07;;;;;;;2.70;1.17;;;17.70;90.80;;;;;;10409182;28;20057;-86
2023/04/23 15:23:11;;;;;;;1.35;0.90;;;17.70;90.90;;;;;;10407845;28;20140;-86
2023/04/23 15:28:11;;;;;;;2.58;1.00;;;17.60;90.90;;;;;;10399496;28;20114;-86
2023/04/23 15:33:12;;;;;;;3.17;1.00;;;17.90;91.20;;;;;;10411526;28;20029;-87
2023/04/23 15:38:13;;;;;;;3.67;1.15;;;17.30;91.30;;;;;;10409223;28;20014;-86
2023/04/23 15:43:15;;;;;;;1.73;0.95;;;17.40;91.60;;;;;;10411552;28;20560;-86
2023/04/23 15:48:16;;;;;;;3.80;1.00;;;17.10;92.00;;;;;;10415481;28;20013;-86
2023/04/23 15:53:18;;;;;;;5.03;1.00;;;17.30;91.80;;;;;;10408532;28;20037;-86
2023/04/23 15:58:20;;;;;;;2.90;0.90;;;17.00;91.80;;;;;;10404194;28;20428;-85
2023/04/23 16:03:20;;;;;;;2.97;1.00;;;17.70;91.90;;;;;;10394619;28;20030;-88
2023/04/23 16:08:21;;;;;;;2.35;0.75;;;16.90;91.50;;;;;;10404932;28;20033;-86
2023/04/23 16:13:23;;;;;;;1.98;1.00;;;16.80;91.50;;;;;;10411716;28;20029;-85
2023/04/23 16:18:23;;;;;;;2.60;1.05;;;17.00;91.70;;;;;;10411673;28;20026;-85
2023/04/23 16:23:24;;;;;;;1.85;0.98;;;16.20;91.80;;;;;;10417416;28;20025;-87
2023/04/23 16:28:25;;;;;;;5.25;1.13;;;16.50;92.20;;;;;;10409849;28;20025;-86
2023/04/23 16:33:26;;;;;;;3.65;1.70;;;16.50;92.70;;;;;;10404302;28;20036;-88
2023/04/23 16:38:26;;;;;;;3.63;1.30;;;16.40;92.90;;;;;;10417963;28;20109;-88
2023/04/23 16:43:27;;;;;;;3.30;1.10;;;16.50;93.00;;;;;;10418394;28;20488;-89
2023/04/23 16:48:27;;;;;;;3.67;1.10;;;16.50;93.00;;;;;;10416897;28;20032;-86
2023/04/23 16:53:28;;;;;;;1.67;0.93;;;17.10;93.30;;;;;;10409226;28;20026;-89
2023/04/23 16:58:29;;;;;;;3.03;1.10;;;16.40;93.20;;;;;;10427029;28;20021;-86
2023/04/23 17:03:32;;;;;;;2.15;0.90;;;16.00;93.30;;;;;;10419755;28;20140;-87
2023/04/23 17:08:35;;;;;;;1.00;0.70;;;16.30;93.50;;;;;;10416811;28;20116;-87
2023/04/23 17:13:36;;;;;;;1.98;0.93;;;16.30;93.60;;;;;;10420547;28;20024;-84
2023/04/23 17:18:36;;;;;;;2.05;0.82;;;17.00;93.90;;;;;;10418946;28;20028;-86
2023/04/23 17:23:37;;;;;;;1.58;0.90;;;16.20;93.80;;;;;;10414272;28;20112;-85
2023/04/23 17:28:41;;;;;;;2.53;0.90;;;16.10;93.90;;;;;;10409391;28;20020;-87
2023/04/23 17:33:44;;;;;;;2.65;0.88;;;16.40;94.00;;;;;;10419570;28;20020;-86
2023/04/23 17:38:45;;;;;;;2.72;0.80;;;16.60;94.20;;;;;;10404037;28;20056;-90
2023/04/23 17:43:46;;;;;;;2.88;1.05;;;16.10;94.30;;;;;;10422089;28;20022;-87
2023/04/23 17:48:47;;;;;;;1.65;0.90;;;16.70;94.50;;;;;;10418320;28;20551;-87
2023/04/23 17:53:49;;;;;;;1.25;0.80;;;16.10;94.40;;;;;;10408628;28;20137;-88
2023/04/23 17:58:49;;;;;;;1.52;1.00;;;16.00;94.50;;;;;;10410312;28;20070;-87
2023/04/23 18:03:50;;;;;;;2.05;1.20;;;15.90;94.60;;;;;;10401382;28;20033;-88
2023/04/23 18:08:54;;;;;;;2.50;1.10;;;15.90;94.60;;;;;;10404271;28;20037;-88
2023/04/23 18:13:55;;;;;;;1.63;1.10;;;16.10;94.80;;;;;;10414408;28;20033;-87
2023/04/23 18:18:55;;;;;;;2.42;1.25;;;15.80;94.70;;;;;;10414363;28;20481;-87
2023/04/23 18:23:56;;;;;;;2.03;1.00;;;15.80;94.80;;;;;;10385678;28;20072;-87
2023/04/23 18:28:57;;;;;;;3.47;1.67;;;16.30;95.00;;;;;;10412872;28;21193;-87
2023/04/23 18:34:01;;;;;;;2.28;1.10;;;15.80;94.90;;;;;;10407058;28;20653;-88
2023/04/23 18:39:02;;;;;;;1.20;0.90;;;15.70;95.00;;;;;;10397539;28;20049;-88
2023/04/23 18:44:03;;;;;;;2.35;1.00;;;15.70;95.00;;;;;;10400099;28;20742;-87
2023/04/23 18:49:24;;;;;;;1.85;1.00;;;15.80;95.10;;;;;;10389072;28;20033;-87
2023/04/23 18:54:25;;;;;;;2.55;0.98;;;15.60;95.10;;;;;;10407893;28;20041;-86
2023/04/23 18:59:27;;;;;;;2.08;0.95;;;16.00;95.20;;;;;;10403529;28;20489;-87
2023/04/23 19:04:27;;;;;;;3.15;0.88;;;15.80;95.20;;;;;;10404848;28;20026;-87
2023/04/23 19:09:29;;;;;;;1.65;1.00;;;15.60;95.30;;;;;;10406910;28;20040;-87
2023/04/23 19:14:29;;;;;;;1.48;0.80;;;15.50;95.30;;;;;;10399141;28;20033;-87
2023/04/23 19:19:34;;;;;;;2.05;1.13;;;15.60;95.40;;;;;;10413822;28;20030;-87
2023/04/23 19:24:34;;;;;;;2.47;1.10;;;15.50;95.40;;;;;;10394736;28;20029;-87
2023/04/23 19:29:35;;;;;;;1.88;1.23;;;15.50;95.40;;;;;;10409432;28;20025;-87
2023/04/23 19:34:35;;;;;;;2.47;1.02;;;15.40;95.50;;;;;;10391880;28;20039;-87
2023/04/23 19:39:36;;;;;;;2.33;1.00;;;15.60;95.50;;;;;;10380421;28;20030;-87
2023/04/23 19:44:37;;;;;;;1.58;1.25;;;15.40;95.50;;;;;;10403243;28;20041;-87
2023/04/23 19:49:37;;;;;;;2.95;1.00;;;15.30;95.60;;;;;;10394289;28;20025;-87
2023/04/23 19:54:38;;;;;;;1.77;1.00;;;15.40;95.60;;;;;;10399974;28;20128;-87
2023/04/23 19:59:39;;;;;;;2.17;1.08;;;15.30;95.60;;;;;;10393883;28;20021;-87
2023/04/23 20:04:40;;;;;;;2.08;0.82;;;15.30;95.70;;;;;;10402689;28;20022;-87
2023/04/23 20:09:40;;;;;;;1.48;1.15;;;16.00;95.90;;;;;;10400437;28;20037;-87
2023/04/23 20:14:41;;;;;;;1.80;0.93;;;15.80;95.80;;;;;;10393852;28;20048;-87
2023/04/23 20:19:42;;;;;;;1.70;0.98;;;15.20;95.70;;;;;;10406609;28;20028;-87
2023/04/23 20:24:45;;;;;;;2.33;1.30;;;15.20;95.80;;;;;;10413817;28;20055;-87
2023/04/23 20:29:47;;;;;;;1.70;1.10;;;15.90;95.90;;;;;;10410814;28;20113;-87
2023/04/23 20:34:47;;;;;;;3.05;1.05;;;15.60;95.90;;;;;;10410873;28;20025;-87
2023/04/23 20:39:48;;;;;;;2.10;1.20;;;15.10;95.80;;;;;;10409153;28;20043;-87
2023/04/23 20:44:50;;;;;;;1.20;1.02;;;15.10;95.90;;;;;;10411712;28;20032;-87
2023/04/23 20:49:51;;;;;;;1.20;0.90;;;15.10;95.90;;;;;;10412622;28;20024;-88
2023/04/23 20:54:52;;;;;;;2.55;1.10;;;15.00;95.90;;;;;;10405970;28;20025;-86
2023/04/23 20:59:52;;;;;;;2.42;1.02;;;15.00;95.90;;;;;;10415222;28;20021;-87
2023/04/23 21:04:53;;;;;;;1.45;0.90;;;15.00;96.00;;;;;;10414382;28;20036;-88
2023/04/23 21:09:53;;;;;;;2.38;0.90;;;15.70;96.10;;;;;;10412774;28;20048;-85
2023/04/23 21:14:54;;;;;;;1.58;1.20;;;15.00;96.00;;;;;;10409494;28;20049;-86
2023/04/23 21:19:55;;;;;;;1.73;1.00;;;14.90;96.00;;;;;;10414909;28;20063;-86
2023/04/23 21:24:55;;;;;;;2.42;1.17;;;15.00;96.10;;;;;;10421223;28;20025;-87
2023/04/23 21:30:03;;;;;;;1.10;1.00;;;14.90;96.00;;;;;;10410279;28;20458;-87
2023/04/23 21:35:08;;;;;;;1.10;0.95;;;14.90;96.10;;;;;;10412914;28;20022;-90
2023/04/23 21:40:09;;;;;;;1.95;1.05;;;14.90;96.10;;;;;;10431166;28;20408;-89
2023/04/23 21:45:10;;;;;;;1.02;0.80;;;14.80;96.10;;;;;;10417066;28;20095;-88
2023/04/23 21:50:10;;;;;;;1.63;1.20;;;14.80;96.10;;;;;;10418907;28;20037;-87
2023/04/23 21:55:12;;;;;;;2.85;1.00;;;14.90;96.20;;;;;;10413678;28;20604;-89
2023/04/23 22:00:14;;;;;;;1.38;0.90;;;15.10;96.20;;;;;;10420377;28;20187;-88
2023/04/23 22:05:23;;;;;;;1.00;0.90;;;14.80;96.20;;;;;;10410234;28;20672;-87
2023/04/23 22:10:24;;;;;;;4.30;1.60;;;15.20;96.30;;;;;;10407054;28;20037;-87
2023/04/23 22:15:25;;;;;;;1.35;1.10;;;14.70;96.20;;;;;;10419336;28;20041;-87
2023/04/23 22:20:29;;;;;;;1.55;1.15;;;15.00;96.30;;;;;;10424090;28;20024;-88
2023/04/23 22:25:30;;;;;;;2.15;1.85;;;14.70;96.30;;;;;;10396693;28;20041;-87
2023/04/23 22:30:30;;;;;;;1.45;1.30;;;14.90;96.30;;;;;;10403386;28;20029;-88
2023/04/23 22:35:31;;;;;;;2.45;1.20;;;14.70;96.30;;;;;;10413398;28;20385;-88
2023/04/23 22:40:32;;;;;;;1.40;1.30;;;14.80;96.40;;;;;;10416454;28;20018;-87
2023/04/23 22:45:33;;;;;;;1.90;1.30;;;14.70;96.40;;;;;;10416904;28;20020;-87
2023/04/23 22:50:33;;;;;;;3.53;1.80;;;14.60;96.40;;;;;;10410026;28;20051;-88
2023/04/23 22:55:34;;;;;;;2.22;1.58;;;14.60;96.40;;;;;;10409166;28;20025;-87
2023/04/23 23:00:35;;;;;;;3.30;1.58;;;14.60;96.40;;;;;;10411883;28;20045;-88
2023/04/23 23:05:35;;;;;;;1.50;1.35;;;15.10;96.60;;;;;;10392830;28;20126;-87
2023/04/23 23:10:36;;;;;;;1.17;1.00;;;14.70;96.50;;;;;;10410921;28;20034;-87
2023/04/23 23:15:37;;;;;;;3.58;1.15;;;14.50;96.50;;;;;;10404226;28;20108;-87
2023/04/23 23:20:44;;;;;;;1.13;1.00;;;14.60;96.50;;;;;;10406885;28;20017;-88
2023/04/23 23:25:44;;;;;;;1.35;0.80;;;14.50;96.50;;;;;;10398002;28;20123;-88
2023/04/23 23:30:46;;;;;;;1.27;0.80;;;14.40;96.50;;;;;;10400703;28;20029;-88
2023/04/23 23:35:47;;;;;;;1.05;0.85;;;14.50;96.50;;;;;;10395508;28;20017;-88
2023/04/23 23:40:47;;;;;;;1.05;0.90;;;14.70;96.60;;;;;;10397831;28;20036;-87
2023/04/23 23:45:48;;;;;;;1.13;0.80;;;15.20;96.70;;;;;;10402014;28;20033;-87
2023/04/23 23:50:50;;;;;;;1.63;0.85;;;14.80;96.60;;;;;;10406360;28;20108;-88
2023/04/23 23:55:50;;;;;;;1.00;0.70;;;14.40;96.50;;;;;;10393639;28;20028;-87
